Latest Weather Observations for Port Pirie Airport AWS***

IDS60801

Issued at 11:05 am CST Friday 22 August 2014 (issued every 30 minutes, with the page automatically refreshed every 10 minutes)

About weather observations | Map of weather stations | Latest weather observations for SA | Other Formats
Station Details ID: 250006 Name: PORT PIRIE AERODROME AWS Lat: -33.23 Lon: 138.00 Height: 10.0 m
Data from the previous 72 hours. | See also: Recent months for locations in South Australia
Date/Time
CST
Temp
°C
App
Temp
°C
Dew
Point
Rel
Hum
%
Delta-T
°C
Wind Press
QNH
hPa
Press
MSL
hPa
Rain
since 9 am
mm
Dir
 
Spd
km/h
Gust
km/h
Spd
kts
Gust
kts
22/11:00am 21.1 16.1 3.8 32 8.3 NNE 19 30 10 16 - - 0.0
22/10:30am 20.7 15.6 3.9 33 8.1 NE 20 28 11 15 - - 0.0
22/10:00am 20.0 14.8 3.7 34 7.7 NNE 20 28 11 15 - - 0.0
22/09:30am 18.8 14.2 3.8 37 7.1 NNE 17 22 9 12 - - 0.0
22/09:00am 17.6 13.0 3.9 40 6.4 NNE 17 24 9 13 - - 0.0
22/08:30am 16.2 13.2 3.9 44 5.7 N 9 17 5 9 - - 0.0
22/08:00am 15.4 12.2 3.2 44 5.5 N 9 13 5 7 - - 0.0
22/07:30am 12.9 10.0 2.7 50 4.5 NNE 7 13 4 7 - - 0.0
22/07:00am 11.9 8.9 2.1 51 4.2 N 7 11 4 6 - - 0.0
22/06:30am 12.5 9.5 1.8 48 4.6 N 7 13 4 7 - - 0.0
22/06:00am 12.8 9.8 2.1 48 4.6 N 7 11 4 6 - - 0.0
22/05:30am 12.1 9.3 2.0 50 4.3 N 6 9 3 5 - - 0.0
22/05:00am 11.0 8.0 2.3 55 3.7 NE 7 11 4 6 - - 0.0
22/04:30am 11.8 9.1 2.5 53 4.0 N 6 9 3 5 - - 0.0
22/04:00am 12.8 10.0 2.9 51 4.4 N 7 11 4 6 - - 0.0
22/03:30am 11.7 9.0 3.5 57 3.6 NNE 7 13 4 7 - - 0.0
22/03:00am 10.9 8.0 2.7 57 3.5 NNE 7 13 4 7 - - 0.0
22/02:30am 12.4 8.9 3.6 55 3.9 NNE 11 13 6 7 - - 0.0
22/02:00am 12.3 8.6 4.5 59 3.5 NNE 13 19 7 10 - - 0.0
22/01:30am 11.1 8.2 4.6 64 2.9 NNE 9 11 5 6 - - 0.0
22/01:00am 9.3 6.6 3.5 67 2.5 NE 7 11 4 6 - - 0.0
22/12:30am 8.4 6.8 4.6 77 1.7 ENE 2 6 1 3 - - 0.0
22/12:00am 6.9 5.0 2.6 74 1.8 N 2 4 1 2 - - 0.0
 
Date/Time
CST
Temp
°C
App
Temp
°C
Dew
Point
Rel
Hum
%
Delta-T
°C
Wind Press
QNH
hPa
Press
MSL
hPa
Rain
since 9 am
mm
Dir
 
Spd
km/h
Gust
km/h
Spd
kts
Gust
kts
21/11:30pm 8.5 7.2 3.9 73 2.0 CALM 0 2 0 1 - - 0.0
21/11:00pm 9.0 7.5 4.8 75 1.9 ESE 2 4 1 2 - - 0.0
21/10:30pm 8.7 6.2 4.9 77 1.7 ESE 7 11 4 6 - - 0.0
21/10:00pm 8.0 5.7 4.9 81 1.4 ESE 6 7 3 4 - - 0.0
21/09:30pm 7.7 5.4 4.8 82 1.3 SE 6 9 3 5 - - 0.0
21/09:00pm 9.0 6.9 5.7 80 1.5 SE 6 7 3 4 - - 0.0
21/08:30pm 10.0 7.4 6.2 77 1.8 ESE 9 11 5 6 - - 0.0
21/08:00pm 11.2 8.4 7.1 76 2.0 SE 11 13 6 7 - - 0.0
21/07:30pm 12.2 10.4 7.3 72 2.4 ESE 6 9 3 5 - - 0.0
21/07:00pm 14.3 12.2 8.3 67 3.0 ESE 9 11 5 6 - - 0.0
21/06:30pm 14.9 12.8 8.2 64 3.4 SE 9 11 5 6 - - 0.0
21/06:00pm 16.6 15.0 7.8 56 4.4 E 6 6 3 3 - - 0.0
21/05:30pm 17.5 16.2 7.8 53 4.9 ENE 4 6 2 3 - - 0.0
21/05:00pm 17.7 16.3 7.4 51 5.2 NNE 4 6 2 3 - - 0.0
21/04:30pm 18.7 16.8 6.9 46 5.9 N 6 13 3 7 - - 0.0
21/04:00pm 19.0 17.0 7.1 46 6.0 NNE 7 11 4 6 - - 0.0
21/03:30pm 19.4 17.2 6.2 42 6.6 NNW 7 15 4 8 - - 0.0
21/03:00pm 21.0 19.0 6.9 40 7.2 N 7 17 4 9 - - 0.0
21/02:30pm 20.0 17.9 6.7 42 6.7 N 7 15 4 8 - - 0.0
21/02:00pm 18.7 16.0 7.2 47 5.8 NNE 11 19 6 10 - - 0.0
21/01:30pm 18.2 14.3 7.0 48 5.6 N 17 24 9 13 - - 0.0
21/01:00pm 18.9 14.4 7.0 46 6.0 NNE 20 26 11 14 - - 0.0
21/12:30pm 18.5 15.0 7.0 47 5.8 NNE 15 24 8 13 - - 0.0
21/12:00pm 17.8 16.4 7.2 50 5.3 N 4 9 2 5 - - 0.0
21/11:30am 17.1 15.2 6.6 50 5.2 NNW 6 9 3 5 - - 0.0
21/11:00am 16.8 14.7 5.7 48 5.4 ENE 6 11 3 6 - - 0.0
21/10:30am 15.9 14.7 6.6 54 4.5 WNW 2 4 1 2 - - 0.0
21/10:00am 14.9 13.2 6.0 55 4.3 W 4 9 2 5 - - 0.0
21/09:30am 14.5 13.0 6.6 59 3.8 W 4 7 2 4 - - 0.0
21/09:00am 12.9 11.3 6.5 65 3.1 WSW 4 9 2 5 - - 0.0
21/08:30am 11.2 9.7 6.7 74 2.1 WSW 4 6 2 3 - - 0.0
21/08:00am 9.2 8.2 5.8 79 1.6 CALM 0 2 0 1 - - 0.0
21/07:30am 6.2 4.4 3.5 83 1.1 E 2 4 1 2 - - 0.0
21/07:00am 4.5 2.4 1.5 81 1.2 E 2 7 1 4 - - 0.0
21/06:30am 5.7 3.9 3.4 85 1.0 ESE 2 4 1 2 - - 0.0
21/06:00am 4.6 2.6 2.1 84 1.0 SSE 2 2 1 1 - - 0.0
21/05:30am 5.4 3.9 2.9 84 1.0 CALM 0 2 0 1 - - 0.0
21/05:00am 5.1 2.8 3.0 86 0.9 S 4 6 2 3 - - 0.0
21/04:30am 4.9 2.0 2.8 86 0.9 S 7 7 4 4 - - 0.0
21/04:00am 5.6 2.5 3.4 86 0.9 S 9 11 5 6 - - 0.0
21/03:30am 5.7 2.6 3.4 85 1.0 SSE 9 11 5 6 - - 0.0
21/03:00am 6.1 3.0 3.4 83 1.1 S 9 13 5 7 - - 0.0
21/02:30am 6.6 3.6 3.9 83 1.2 SSE 9 13 5 7 - - 0.0
21/02:00am 6.6 3.1 3.6 81 1.3 SSW 11 15 6 8 - - 0.0
21/01:30am 6.9 4.4 3.9 81 1.3 SSW 6 13 3 7 - - 0.0
21/01:00am 7.8 4.1 4.2 78 1.6 S 13 17 7 9 - - 0.0
21/12:30am 8.2 5.7 3.7 73 1.9 S 6 20 3 11 - - 0.0
21/12:00am 7.1 4.7 4.4 83 1.2 SSE 6 13 3 7 - - 0.0
 
Date/Time
CST
Temp
°C
App
Temp
°C
Dew
Point
Rel
Hum
%
Delta-T
°C
Wind Press
QNH
hPa
Press
MSL
hPa
Rain
since 9 am
mm
Dir
 
Spd
km/h
Gust
km/h
Spd
kts
Gust
kts
20/11:30pm 7.8 4.5 4.4 79 1.5 S 11 17 6 9 - - 0.0
20/11:00pm 7.5 4.2 4.6 82 1.3 SSE 11 17 6 9 - - 0.0
20/10:30pm 6.8 3.5 4.5 85 1.0 SSE 11 17 6 9 - - 0.0
20/10:00pm 6.9 3.6 4.7 86 1.0 S 11 17 6 9 - - 0.0
20/09:30pm 6.9 3.7 4.9 87 0.9 S 11 13 6 7 - - 0.0
20/09:00pm 7.8 4.3 5.4 85 1.1 SSE 13 19 7 10 - - 0.0
20/08:30pm 8.4 4.6 6.0 85 1.1 S 15 22 8 12 - - 0.0
20/08:00pm 8.5 5.2 6.3 86 1.0 S 13 17 7 9 - - 0.0
20/07:30pm 8.1 5.4 5.6 84 1.1 SSE 9 11 5 6 - - 0.0
20/07:00pm 9.1 6.4 5.8 80 1.5 SSE 9 13 5 7 - - 0.0
20/06:30pm 10.4 7.4 6.0 74 2.0 S 11 17 6 9 - - 0.0
20/06:00pm 11.9 8.5 6.0 67 2.8 S 13 19 7 10 - - 0.0
20/05:30pm 14.0 9.9 6.4 60 3.6 S 17 22 9 12 - - 0.0
20/05:00pm 15.9 11.8 6.3 53 4.7 SSE 17 26 9 14 - - 0.0
20/04:30pm 17.2 12.6 6.4 49 5.3 SSE 20 28 11 15 - - 0.0
20/04:00pm 17.4 13.4 6.6 49 5.3 S 17 24 9 13 - - 0.0
20/03:30pm 16.8 13.5 6.3 50 5.1 S 13 19 7 10 - - 0.0
20/03:00pm 17.0 14.2 6.8 51 5.0 SSW 11 19 6 10 - - 0.0
20/02:30pm 16.9 14.8 5.8 48 5.4 S 6 9 3 5 - - 0.0
20/02:00pm 16.3 14.1 6.2 51 4.9 S 7 15 4 8 - - 0.0
20/01:30pm 16.3 14.1 6.4 52 4.8 SW 7 13 4 7 - - 0.0
20/01:00pm 16.2 14.5 6.1 51 4.9 SSW 4 9 2 5 - - 0.0
20/12:30pm 15.8 14.0 5.4 50 5.0 NW 4 9 2 5 - - 0.0
20/12:00pm 16.6 14.1 6.4 51 5.0 ESE 9 17 5 9 - - 0.0
20/11:30am 16.7 13.9 7.1 53 4.8 ESE 11 20 6 11 - - 0.0
20/11:00am 16.4 13.2 6.8 53 4.7 ESE 13 22 7 12 - - 0.0
20/10:30am 15.5 12.2 6.5 55 4.4 ESE 13 22 7 12 - - 0.0
20/10:00am 14.4 10.7 6.5 59 3.8 ESE 15 22 8 12 - - 0.0
20/09:30am 12.1 8.5 6.6 69 2.6 SE 15 19 8 10 - - 0.0
20/09:00am 10.6 7.6 6.2 74 2.0 SSE 11 19 6 10 - - 0.0
20/08:30am 8.6 5.1 5.5 81 1.4 SSE 13 17 7 9 - - 0.0
20/08:00am 6.1 2.4 4.3 88 0.8 SSE 13 19 7 10 - - 0.0
20/07:30am 3.4 -0.3 2.1 91 0.5 SSE 11 13 6 7 - - 0.0
20/07:00am 3.3 -0.5 2.0 91 0.5 SSE 11 15 6 8 - - 0.0
20/06:30am 3.6 -0.1 2.3 91 0.5 S 11 13 6 7 - - 0.0
20/06:00am 4.7 1.5 2.9 88 0.7 SSE 9 11 5 6 - - 0.0
20/05:30am 5.8 2.8 4.0 88 0.8 SSE 9 13 5 7 - - 0.0
20/05:00am 6.2 3.4 5.2 93 0.4 SSE 9 11 5 6 - - 0.0
20/04:30am 3.9 1.3 3.2 95 0.3 S 6 7 3 4 - - 0.0
20/04:00am 3.2 0.5 2.6 96 0.2 SSE 6 7 3 4 - - 0.0
20/03:30am 2.5 -0.5 1.8 95 0.3 S 7 9 4 5 - - 0.0
20/03:00am 2.4 -1.0 1.7 95 0.3 SSE 9 11 5 6 - - 0.0
20/02:30am 2.2 -0.9 1.5 95 0.3 S 7 11 4 6 - - 0.0
20/02:00am 2.0 -1.1 1.1 94 0.3 SSE 7 9 4 5 - - 0.0
20/01:30am 2.7 -0.3 1.8 94 0.3 SSE 7 9 4 5 - - 0.0
20/01:00am 2.8 0.0 1.8 93 0.4 SE 6 7 3 4 - - 0.0
20/12:30am 3.3 0.5 2.3 93 0.4 SE 6 7 3 4 - - 0.0
20/12:00am 3.1 0.3 1.8 91 0.5 SE 6 6 3 3 - - 0.0
 
Date/Time
CST
Temp
°C
App
Temp
°C
Dew
Point
Rel
Hum
%
Delta-T
°C
Wind Press
QNH
hPa
Press
MSL
hPa
Rain
since 9 am
mm
Dir
 
Spd
km/h
Gust
km/h
Spd
kts
Gust
kts
19/11:30pm 3.1 0.6 1.8 91 0.5 SE 4 6 2 3 - - 0.0
19/11:00pm 2.8 0.2 1.0 88 0.7 SSE 4 6 2 3 - - 0.0
19/10:30pm 3.7 0.9 1.9 88 0.7 S 6 6 3 3 - - 0.0
19/10:00pm 3.6 0.7 1.3 85 0.9 SSE 6 7 3 4 - - 0.0
19/09:30pm 4.1 2.0 1.8 85 0.9 E 2 6 1 3 - - 0.0
19/09:00pm 3.7 1.5 1.3 84 0.9 ESE 2 4 1 2 - - 0.0
19/08:30pm 3.7 1.2 1.3 84 0.9 ESE 4 7 2 4 - - 0.0
19/08:00pm 4.2 1.0 0.9 79 1.3 ESE 7 7 4 4 - - 0.0
19/07:30pm 5.1 2.2 1.4 77 1.5 SSE 6 9 3 5 - - 0.0
19/07:00pm 8.3 5.7 3.0 69 2.2 SW 6 7 3 4 - - 0.0
19/06:30pm 9.4 6.6 2.9 64 2.8 SW 7 9 4 5 - - 0.0
19/06:00pm 9.0 6.2 3.2 67 2.5 SSW 7 9 4 5 - - 0.0
19/05:30pm 10.7 7.9 3.0 59 3.3 S 7 9 4 5 - - 0.0
19/05:00pm 12.2 8.1 2.4 51 4.2 S 13 17 7 9 - - 0.0
19/04:30pm 12.0 8.3 2.5 52 4.1 SSE 11 15 6 8 - - 0.0
19/04:00pm 13.2 9.9 2.4 48 4.7 SE 9 17 5 9 - - 0.0
19/03:30pm 13.6 9.5 2.2 46 5.0 SE 13 22 7 12 - - 0.0
19/03:00pm 12.8 8.4 2.9 51 4.4 SSE 15 20 8 11 - - 0.0
19/02:30pm 13.5 8.4 3.0 49 4.7 S 19 30 10 16 - - 0.0
19/02:00pm 13.2 7.9 2.1 47 4.8 SE 19 28 10 15 - - 0.0
19/01:30pm 13.3 8.5 2.5 48 4.7 SSE 17 24 9 13 - - 0.0
19/01:00pm 13.3 8.6 3.1 50 4.5 SSE 17 28 9 15 - - 0.0
19/12:30pm 13.7 9.4 3.2 49 4.7 SSE 15 24 8 13 - - 0.0
19/12:00pm 13.6 8.8 2.8 48 4.8 SE 17 24 9 13 - - 0.0
19/11:30am 13.4 9.3 2.3 47 4.9 S 13 19 7 10 - - 0.0

Other Formats:

Comma delimited format used in spreadsheet applications
http://www.bom.gov.au/fwo/IDS60801/IDS60801.99001.axf

JavaScript Object Notation format (JSON) in row-major order
http://www.bom.gov.au/fwo/IDS60801/IDS60801.99001.json